»·PEaware :: DCM205 KPSP-KSFO

DCM205 :: KPSP-KSFO

FLIGHT INFORMATION

Flight Status: Arrived
Operator:
DotCom
More flights by this operator :: More flights under this callsign
Pilot: Chris S. (2433)
Aircraft: BOEING 737-700
(B737)
More flights by this aircraft type
Origin: KPSP Palm Springs Intl
United States
Destination: KSFO San Francisco Intl
United States
More flights between these airports :: More routes between these airports
Route: +CATH1 PSP V386 PMD AVE MAKRS SERFR SERFR4
File this flight plan on PilotEdge
Remarks:
Altitude:
(Current/Filed)
36,000ft
Speed:
(Current/Filed)
450kts
Departed: 10-Jun-20 07:30 PM
Arrived: 10-Jun-20 08:44 PM
Distance/Time
Traveled:
365nm/1:14
Distance/Time
To Go:
Arrived

Flight Plot

Page will automatically refresh every two minutes.

Flight plan parsing failed; only flown route is shown


Map Options




Map Legend


Flown Route
Filed Route
Departure Airport
Arrival Airport
Navaid (VOR, NDB)
Fix

Horizontal Profiles

Position Reports

Time Latitude Longitude Heading Altitude Ground
Speed
10-Jun-20 19:13 33.821207 -116.506837 314 485ft 0kts
10-Jun-20 19:14 33.821207 -116.506837 314 485ft 0kts
10-Jun-20 19:15 33.821207 -116.506837 314 485ft 0kts
10-Jun-20 19:16 33.821207 -116.506837 314 485ft 0kts
10-Jun-20 19:17 33.821207 -116.506837 314 485ft 0kts
10-Jun-20 19:18 33.821207 -116.506837 314 485ft 0kts
10-Jun-20 19:19 33.821207 -116.506837 314 485ft 0kts
10-Jun-20 19:20 33.821207 -116.506837 314 485ft 0kts
10-Jun-20 19:21 33.821122 -116.506732 314 485ft 0kts
10-Jun-20 19:22 33.821122 -116.506732 314 485ft 0kts
10-Jun-20 19:23 33.821122 -116.506732 314 485ft 0kts
10-Jun-20 19:24 33.821231 -116.506734 36 485ft 1kts
10-Jun-20 19:25 33.821704 -116.505675 359 485ft 8kts
10-Jun-20 19:26 33.823075 -116.504072 109 485ft 6kts
10-Jun-20 19:27 33.820432 -116.501494 143 485ft 15kts
10-Jun-20 19:28 33.818494 -116.498730 82 485ft 5kts
10-Jun-20 19:29 33.822827 -116.501589 323 485ft 83kts
10-Jun-20 19:30 33.854089 -116.531092 322 1784ft 164kts
10-Jun-20 19:31 33.903194 -116.551077 29 3366ft 226kts
10-Jun-20 19:32 33.904392 -116.482171 127 6552ft 239kts
10-Jun-20 19:33 33.863498 -116.415704 118 9605ft 253kts
10-Jun-20 19:34 33.831553 -116.339415 117 12828ft 259kts
10-Jun-20 19:35 33.797908 -116.260551 117 15881ft 271kts
10-Jun-20 19:36 33.737489 -116.220365 198 18746ft 282kts
10-Jun-20 19:37 33.709822 -116.298078 293 21503ft 292kts
10-Jun-20 19:38 33.771446 -116.363481 330 23727ft 318kts
10-Jun-20 19:39 33.857104 -116.420716 332 24505ft 386kts
10-Jun-20 19:40 33.964268 -116.466531 341 25918ft 420kts
10-Jun-20 19:41 34.077134 -116.510623 340 27816ft 432kts
10-Jun-20 19:42 34.193051 -116.556072 340 29519ft 443kts
10-Jun-20 19:43 34.311267 -116.602518 339 31335ft 445kts
10-Jun-20 19:44 34.428857 -116.648932 339 33191ft 442kts
10-Jun-20 19:45 34.507960 -116.748888 282 34782ft 421kts
10-Jun-20 19:46 34.523971 -116.888580 274 36133ft 417kts
10-Jun-20 19:47 34.537018 -117.027908 274 36158ft 415kts
10-Jun-20 19:48 34.550143 -117.167293 274 36122ft 415kts
10-Jun-20 19:49 34.563224 -117.306681 275 36083ft 416kts
10-Jun-20 19:50 34.576360 -117.445711 274 36079ft 415kts
10-Jun-20 19:51 34.588919 -117.585113 274 36068ft 415kts
10-Jun-20 19:52 34.601438 -117.724446 274 36052ft 415kts
10-Jun-20 19:53 34.614075 -117.864258 274 36056ft 415kts
10-Jun-20 19:54 34.626178 -118.003533 274 36072ft 415kts
10-Jun-20 19:55 34.669824 -118.133144 299 36078ft 421kts
10-Jun-20 19:56 34.733737 -118.252437 300 36070ft 422kts
10-Jun-20 19:57 34.797919 -118.371743 300 36095ft 421kts
10-Jun-20 19:58 34.862583 -118.490979 300 36150ft 421kts
10-Jun-20 19:59 34.926735 -118.609959 300 36191ft 421kts
10-Jun-20 20:00 34.990626 -118.729159 300 36195ft 420kts
10-Jun-20 20:01 35.054418 -118.848635 300 36175ft 420kts
10-Jun-20 20:02 35.118214 -118.968534 300 36131ft 420kts
10-Jun-20 20:03 35.181742 -119.088344 300 36052ft 420kts
10-Jun-20 20:04 35.245048 -119.208146 299 36005ft 419kts
10-Jun-20 20:05 35.308071 -119.327826 299 35996ft 418kts
10-Jun-20 20:06 35.370923 -119.447593 299 36003ft 417kts
10-Jun-20 20:07 35.433557 -119.567362 299 36008ft 417kts
10-Jun-20 20:08 35.496393 -119.687383 299 35977ft 417kts
10-Jun-20 20:09 35.558523 -119.807123 299 35980ft 416kts
10-Jun-20 20:10 35.620738 -119.927696 299 35982ft 416kts
10-Jun-20 20:11 35.655466 -120.060395 275 36000ft 408kts
10-Jun-20 20:12 35.668801 -120.198647 274 36009ft 407kts
10-Jun-20 20:13 35.685064 -120.336636 283 36005ft 409kts
10-Jun-20 20:14 35.729495 -120.466256 292 36009ft 412kts
10-Jun-20 20:15 35.777975 -120.594045 292 36010ft 413kts
10-Jun-20 20:16 35.826536 -120.722403 292 36009ft 413kts
10-Jun-20 20:17 35.875536 -120.850475 292 36024ft 412kts
10-Jun-20 20:18 35.923981 -120.978783 292 35136ft 411kts
10-Jun-20 20:19 35.972679 -121.107556 292 34174ft 421kts
10-Jun-20 20:21 36.021787 -121.239403 291 31563ft 424kts
10-Jun-20 20:22 36.079938 -121.366922 311 30563ft 435kts
10-Jun-20 20:23 36.179827 -121.452213 324 29563ft 435kts
10-Jun-20 20:24 36.281761 -121.531090 324 28564ft 430kts
10-Jun-20 20:25 36.382107 -121.609903 324 26949ft 424kts
10-Jun-20 20:26 36.481024 -121.687872 324 24529ft 417kts
10-Jun-20 20:27 36.575184 -121.762046 324 23461ft 373kts
10-Jun-20 20:28 36.662535 -121.831393 324 20820ft 387kts
10-Jun-20 20:29 36.754826 -121.896296 339 18648ft 377kts
10-Jun-20 20:30 36.855481 -121.926047 346 16037ft 364kts
10-Jun-20 20:31 36.952215 -121.953099 345 13492ft 349kts
10-Jun-20 20:32 37.043779 -121.988401 341 10971ft 339kts
10-Jun-20 20:33 37.126986 -122.021261 341 10331ft 289kts
10-Jun-20 20:34 37.202637 -122.050957 341 8800ft 282kts
10-Jun-20 20:35 37.276386 -122.079924 341 8005ft 275kts
10-Jun-20 20:36 37.347808 -122.108039 340 7391ft 256kts
10-Jun-20 20:37 37.416020 -122.133037 342 5441ft 247kts
10-Jun-20 20:38 37.479413 -122.154481 341 4104ft 208kts
10-Jun-20 20:39 37.529871 -122.173082 324 3125ft 180kts
10-Jun-20 20:40 37.556020 -122.225764 297 2318ft 176kts
10-Jun-20 20:41 37.577115 -122.275970 296 1460ft 138kts
10-Jun-20 20:41 37.590985 -122.309222 296 872ft 122kts
10-Jun-20 20:43 37.609511 -122.352974 296 151ft 120kts
10-Jun-20 20:43 37.618816 -122.375246 295 20ft 37kts
10-Jun-20 20:44 37.619537 -122.379468 231 20ft 6kts
10-Jun-20 20:45 37.619836 -122.382461 298 20ft 12kts
10-Jun-20 20:46 37.620141 -122.385260 206 20ft 0kts
10-Jun-20 20:47 37.620043 -122.385325 207 20ft 0kts
10-Jun-20 20:48 37.619209 -122.384986 116 20ft 0kts

Navigation Log

Ident Type
Flight plan parsing failed, navigation log unavailable